Time;durP1;ratioP1;P1;durP2;ratioP2;P2;SDS_P1;SDS_P2;PMS_P1;PMS_P2;Temp;Humidity;BMP_temperature;BMP_pressure;BME280_temperature;BME280_humidity;BME280_pressure;Samples;Min_cycle;Max_cycle;Signal;HPM_P1;HPM_P2
2022/01/29 00:02:07;;;;;;;;;18.00;17.00;;;;;;;;5056989;28;45194;-77
2022/01/29 00:04:33;;;;;;;;;17.25;15.50;;;;;;;;5060814;28;45288;-77
2022/01/29 00:06:58;;;;;;;;;20.75;14.25;;;;;;;;5051122;28;46039;-76
2022/01/29 00:09:23;;;;;;;;;14.25;9.75;;;;;;;;5041673;28;45268;-77
2022/01/29 00:11:48;;;;;;;;;15.75;15.00;;;;;;;;5057290;28;45387;-77
2022/01/29 00:14:14;;;;;;;;;16.25;15.00;;;;;;;;5058543;28;45540;-76
2022/01/29 00:16:40;;;;;;;;;20.00;18.50;;;;;;;;5052825;28;47099;-77
2022/01/29 00:19:06;;;;;;;;;19.50;17.25;;;;;;;;5057335;28;45260;-77
2022/01/29 00:21:31;;;;;;;;;17.25;15.00;;;;;;;;5074402;28;45210;-75
2022/01/29 00:23:57;;;;;;;;;17.50;14.25;;;;;;;;5054142;28;46772;-76
2022/01/29 00:26:24;;;;;;;;;16.75;14.00;;;;;;;;5056759;28;46232;-77
2022/01/29 00:28:51;;;;;;;;;23.00;16.50;;;;;;;;5033532;28;45652;-77
2022/01/29 00:31:16;;;;;;;;;19.00;15.00;;;;;;;;5057519;28;45254;-77
2022/01/29 00:33:42;;;;;;;;;14.75;13.25;;;;;;;;5054502;28;45122;-77
2022/01/29 00:36:07;;;;;;;;;14.50;12.50;;;;;;;;5068219;28;45621;-77
2022/01/29 00:38:33;;;;;;;;;18.25;17.25;;;;;;;;5060571;28;45305;-77
2022/01/29 00:40:58;;;;;;;;;17.00;16.00;;;;;;;;5056048;28;45397;-77
2022/01/29 00:43:23;;;;;;;;;17.50;13.00;;;;;;;;5058728;28;45494;-77
2022/01/29 00:45:48;;;;;;;;;18.50;15.50;;;;;;;;5056813;28;45405;-77
2022/01/29 00:48:14;;;;;;;;;18.00;12.75;;;;;;;;5049109;28;45917;-77
2022/01/29 00:50:39;;;;;;;;;12.00;12.00;;;;;;;;5028557;28;45406;-76
2022/01/29 00:53:04;;;;;;;;;17.50;13.50;;;;;;;;5048807;28;46116;-77
2022/01/29 00:55:29;;;;;;;;;15.75;14.00;;;;;;;;5058081;28;45505;-76
2022/01/29 00:57:55;;;;;;;;;17.25;14.00;;;;;;;;5057454;28;45548;-76
2022/01/29 01:00:20;;;;;;;;;15.50;14.50;;;;;;;;5058606;28;45569;-77
2022/01/29 01:02:45;;;;;;;;;16.50;15.00;;;;;;;;5052456;28;46164;-76
2022/01/29 01:05:11;;;;;;;;;15.00;13.25;;;;;;;;5057004;28;47496;-76
2022/01/29 01:07:36;;;;;;;;;15.25;14.00;;;;;;;;5051852;28;45316;-76
2022/01/29 01:10:02;;;;;;;;;20.00;14.50;;;;;;;;5041851;28;45759;-76
2022/01/29 01:12:28;;;;;;;;;14.00;12.50;;;;;;;;5034180;28;45950;-77
2022/01/29 01:14:53;;;;;;;;;14.00;12.75;;;;;;;;5058824;28;45365;-77
2022/01/29 01:17:18;;;;;;;;;18.75;14.00;;;;;;;;5035177;28;45446;-76
2022/01/29 01:19:44;;;;;;;;;16.50;13.75;;;;;;;;5058571;28;45257;-77
2022/01/29 01:22:09;;;;;;;;;14.00;12.75;;;;;;;;5057508;28;45406;-77
2022/01/29 01:24:34;;;;;;;;;18.75;14.00;;;;;;;;5042090;28;47082;-77
2022/01/29 01:27:00;;;;;;;;;16.75;15.50;;;;;;;;5032577;28;45565;-77
2022/01/29 01:29:25;;;;;;;;;16.50;14.75;;;;;;;;5058718;28;45451;-76
2022/01/29 01:31:50;;;;;;;;;14.00;13.50;;;;;;;;5051860;28;45395;-76
2022/01/29 01:34:18;;;;;;;;;14.25;14.25;;;;;;;;5058111;28;46173;-76
2022/01/29 01:36:49;;;;;;;;;13.50;12.50;;;;;;;;5056702;28;45411;-76
2022/01/29 01:39:19;;;;;;;;;19.25;15.25;;;;;;;;5059858;28;45277;-77
2022/01/29 01:41:53;;;;;;;;;18.00;14.25;;;;;;;;5050664;28;45237;-77
2022/01/29 01:44:19;;;;;;;;;17.75;14.75;;;;;;;;5041687;28;48279;-76
2022/01/29 01:46:44;;;;;;;;;19.75;13.50;;;;;;;;5056134;28;45464;-76
2022/01/29 01:49:09;;;;;;;;;16.75;15.00;;;;;;;;5075504;28;44638;-77
2022/01/29 01:51:34;;;;;;;;;19.25;15.75;;;;;;;;5051889;28;45355;-76
2022/01/29 01:54:00;;;;;;;;;19.75;19.00;;;;;;;;5059428;28;46187;-76
2022/01/29 01:56:25;;;;;;;;;15.50;14.75;;;;;;;;5052906;28;45333;-76
2022/01/29 01:58:50;;;;;;;;;18.50;16.25;;;;;;;;5058272;28;45335;-77
2022/01/29 02:01:15;;;;;;;;;13.50;12.75;;;;;;;;5051292;28;47257;-77
2022/01/29 02:03:41;;;;;;;;;20.75;14.50;;;;;;;;5059324;28;45510;-77
2022/01/29 02:06:06;;;;;;;;;19.25;15.00;;;;;;;;5051868;28;45445;-77
2022/01/29 02:08:31;;;;;;;;;13.25;13.00;;;;;;;;5036988;28;45591;-77
2022/01/29 02:11:04;;;;;;;;;22.25;18.00;;;;;;;;5049259;28;47062;-77
2022/01/29 02:13:29;;;;;;;;;15.75;14.00;;;;;;;;5038817;28;47452;-77
2022/01/29 02:15:55;;;;;;;;;23.75;15.75;;;;;;;;5056047;28;45227;-77
2022/01/29 02:18:21;;;;;;;;;23.00;17.00;;;;;;;;5059153;28;45368;-77
2022/01/29 02:20:46;;;;;;;;;20.00;16.25;;;;;;;;5056557;28;45395;-77
2022/01/29 02:23:11;;;;;;;;;17.50;17.00;;;;;;;;5040500;28;47482;-78
2022/01/29 02:25:47;;;;;;;;;15.00;13.50;;;;;;;;5057140;28;48081;-77
2022/01/29 02:28:20;;;;;;;;;21.50;15.75;;;;;;;;5026481;28;45315;-77
2022/01/29 02:30:46;;;;;;;;;19.25;14.50;;;;;;;;5053030;28;45542;-77
2022/01/29 02:33:13;;;;;;;;;16.75;16.25;;;;;;;;5043657;28;48270;-77
2022/01/29 02:35:40;;;;;;;;;17.75;15.50;;;;;;;;5061222;28;45546;-77
2022/01/29 02:38:06;;;;;;;;;26.75;15.50;;;;;;;;5061101;28;45287;-77
2022/01/29 02:40:36;;;;;;;;;14.00;13.50;;;;;;;;5041601;28;46346;-76
2022/01/29 02:43:38;;;;;;;;;21.50;16.25;;;;;;;;5035864;28;47098;-76
2022/01/29 02:46:19;;;;;;;;;14.00;13.00;;;;;;;;5014361;28;45280;-76
2022/01/29 02:48:49;;;;;;;;;18.25;15.00;;;;;;;;5060141;28;45380;-76
2022/01/29 02:51:14;;;;;;;;;14.00;14.00;;;;;;;;5037481;28;46599;-76
2022/01/29 02:53:40;;;;;;;;;14.50;13.50;;;;;;;;5052248;28;48129;-76
2022/01/29 02:56:05;;;;;;;;;19.75;17.50;;;;;;;;5056623;28;45439;-76
2022/01/29 02:58:30;;;;;;;;;14.75;14.75;;;;;;;;5059124;28;45433;-76
2022/01/29 03:00:56;;;;;;;;;15.25;11.25;;;;;;;;5057798;28;45490;-76
2022/01/29 03:03:21;;;;;;;;;13.75;13.75;;;;;;;;5055572;28;45547;-76
2022/01/29 03:05:46;;;;;;;;;19.00;14.75;;;;;;;;5057567;28;45327;-76
2022/01/29 03:08:12;;;;;;;;;12.50;12.50;;;;;;;;5056433;28;45423;-76
2022/01/29 03:10:37;;;;;;;;;13.25;9.50;;;;;;;;5059916;28;45214;-76
2022/01/29 03:13:02;;;;;;;;;18.50;14.00;;;;;;;;5064131;28;45601;-75
2022/01/29 03:15:28;;;;;;;;;10.25;9.75;;;;;;;;5070880;28;45290;-76
2022/01/29 03:17:53;;;;;;;;;15.00;12.00;;;;;;;;5054211;28;44789;-76
2022/01/29 03:20:18;;;;;;;;;18.75;15.00;;;;;;;;5060556;28;45377;-76
2022/01/29 03:22:44;;;;;;;;;12.75;11.75;;;;;;;;5052185;28;45449;-76
2022/01/29 03:25:09;;;;;;;;;15.50;15.25;;;;;;;;5052656;28;45342;-76
2022/01/29 03:27:34;;;;;;;;;15.50;14.00;;;;;;;;5052627;28;45325;-76
2022/01/29 03:30:00;;;;;;;;;15.25;13.00;;;;;;;;5061837;28;45451;-76
2022/01/29 03:32:25;;;;;;;;;16.75;12.75;;;;;;;;5055119;28;45339;-76
2022/01/29 03:34:50;;;;;;;;;12.00;12.00;;;;;;;;5053021;28;45250;-76
2022/01/29 03:37:16;;;;;;;;;16.25;14.75;;;;;;;;5057975;28;45254;-76
2022/01/29 03:39:43;;;;;;;;;14.25;11.25;;;;;;;;5043687;28;46505;-76
2022/01/29 03:42:10;;;;;;;;;18.25;10.00;;;;;;;;5054567;28;45512;-76
2022/01/29 03:44:35;;;;;;;;;15.25;14.50;;;;;;;;5043053;28;45570;-76
2022/01/29 03:47:01;;;;;;;;;13.75;12.75;;;;;;;;5036930;28;45409;-77
2022/01/29 03:49:26;;;;;;;;;14.75;9.75;;;;;;;;5061392;28;45347;-77
2022/01/29 03:51:51;;;;;;;;;14.25;13.00;;;;;;;;5054676;28;46170;-76
2022/01/29 03:54:16;;;;;;;;;13.75;12.50;;;;;;;;5060660;28;45431;-76
2022/01/29 03:56:42;;;;;;;;;14.25;12.25;;;;;;;;5054724;28;45372;-76
2022/01/29 03:59:07;;;;;;;;;15.50;13.25;;;;;;;;5061212;28;45275;-76
2022/01/29 04:01:32;;;;;;;;;16.50;15.25;;;;;;;;5054698;28;45446;-76
2022/01/29 04:03:57;;;;;;;;;18.50;14.25;;;;;;;;5056999;28;44754;-76
2022/01/29 04:06:23;;;;;;;;;13.25;12.00;;;;;;;;5055923;28;45371;-76
2022/01/29 04:08:48;;;;;;;;;18.25;12.50;;;;;;;;5050338;28;46000;-76
2022/01/29 04:11:14;;;;;;;;;15.00;12.75;;;;;;;;5057195;28;45358;-76
2022/01/29 04:13:42;;;;;;;;;19.00;15.00;;;;;;;;5059112;28;45316;-76
2022/01/29 04:16:08;;;;;;;;;19.25;16.25;;;;;;;;5040117;28;45439;-76
2022/01/29 04:18:33;;;;;;;;;10.00;9.00;;;;;;;;5042010;28;47147;-76
2022/01/29 04:20:59;;;;;;;;;14.75;14.50;;;;;;;;5058614;28;46412;-76
2022/01/29 04:23:24;;;;;;;;;17.00;15.00;;;;;;;;5052298;28;45348;-76
2022/01/29 04:25:52;;;;;;;;;15.50;12.50;;;;;;;;5059061;28;45375;-76
2022/01/29 04:28:17;;;;;;;;;18.75;15.50;;;;;;;;5053366;28;45409;-76
2022/01/29 04:30:47;;;;;;;;;18.75;17.25;;;;;;;;5058899;28;45349;-76
2022/01/29 04:33:28;;;;;;;;;15.00;15.00;;;;;;;;5057413;28;45349;-76
2022/01/29 04:35:53;;;;;;;;;18.00;16.25;;;;;;;;5057583;28;45414;-76
2022/01/29 04:38:19;;;;;;;;;18.00;15.00;;;;;;;;5062960;28;45904;-76
2022/01/29 04:40:44;;;;;;;;;16.25;11.50;;;;;;;;5066852;28;45590;-76
2022/01/29 04:43:09;;;;;;;;;13.25;10.00;;;;;;;;5056646;28;44764;-76
2022/01/29 04:45:35;;;;;;;;;17.50;14.25;;;;;;;;5058621;28;45558;-76
2022/01/29 04:48:00;;;;;;;;;16.50;9.75;;;;;;;;5055976;28;45376;-77
2022/01/29 04:50:25;;;;;;;;;16.50;12.75;;;;;;;;5058181;28;45603;-78
2022/01/29 04:52:50;;;;;;;;;11.25;9.75;;;;;;;;5047203;28;45359;-77
2022/01/29 04:55:16;;;;;;;;;15.25;15.25;;;;;;;;5058910;28;45345;-77
2022/01/29 04:57:41;;;;;;;;;15.50;13.25;;;;;;;;5057444;28;45507;-77
2022/01/29 05:00:22;;;;;;;;;15.75;11.25;;;;;;;;5060586;28;45416;-78
2022/01/29 05:02:48;;;;;;;;;12.75;12.50;;;;;;;;5052705;28;45482;-79
2022/01/29 05:05:13;;;;;;;;;12.25;10.25;;;;;;;;5041335;28;45404;-78
2022/01/29 05:07:38;;;;;;;;;17.50;13.50;;;;;;;;5053608;28;45398;-80
2022/01/29 05:10:04;;;;;;;;;14.00;13.00;;;;;;;;5060562;28;46531;-79
2022/01/29 05:12:40;;;;;;;;;14.25;14.00;;;;;;;;5054904;28;45518;-78
2022/01/29 05:15:35;;;;;;;;;21.00;13.25;;;;;;;;5059083;28;45525;-79
2022/01/29 05:28:46;;;;;;;;;17.00;13.25;;;;;;;;5053722;28;45339;-77
2022/01/29 05:31:12;;;;;;;;;18.50;13.75;;;;;;;;5054296;28;45463;-78
2022/01/29 05:33:37;;;;;;;;;16.25;15.75;;;;;;;;5058685;28;45312;-79
2022/01/29 05:36:02;;;;;;;;;16.50;13.75;;;;;;;;5038517;28;45413;-77
2022/01/29 05:38:28;;;;;;;;;15.75;14.25;;;;;;;;5059592;28;45208;-75
2022/01/29 05:40:54;;;;;;;;;14.25;13.50;;;;;;;;5058048;28;45352;-75
2022/01/29 05:43:19;;;;;;;;;14.75;13.25;;;;;;;;5055701;28;45402;-75
2022/01/29 05:45:44;;;;;;;;;16.00;14.00;;;;;;;;5057334;28;45560;-75
2022/01/29 05:48:09;;;;;;;;;13.75;11.25;;;;;;;;5055611;28;45333;-77
2022/01/29 05:50:35;;;;;;;;;13.50;11.25;;;;;;;;5057486;28;45543;-75
2022/01/29 05:53:00;;;;;;;;;16.00;14.00;;;;;;;;5047889;28;45186;-76
2022/01/29 05:55:25;;;;;;;;;13.50;9.75;;;;;;;;5057281;28;45466;-75
2022/01/29 05:57:50;;;;;;;;;16.25;15.00;;;;;;;;5031354;28;45628;-75
2022/01/29 06:00:16;;;;;;;;;15.00;11.00;;;;;;;;5058428;28;46584;-74
2022/01/29 06:02:41;;;;;;;;;17.25;13.50;;;;;;;;5048996;28;45252;-76
2022/01/29 06:05:06;;;;;;;;;15.00;14.00;;;;;;;;5059565;28;45257;-77
2022/01/29 06:07:32;;;;;;;;;17.25;14.25;;;;;;;;5053391;28;45265;-76
2022/01/29 06:09:57;;;;;;;;;17.00;13.50;;;;;;;;5068599;28;45266;-76
2022/01/29 06:12:22;;;;;;;;;16.00;12.75;;;;;;;;5044845;28;45061;-77
2022/01/29 06:14:47;;;;;;;;;14.75;13.25;;;;;;;;5058517;28;45192;-77
2022/01/29 06:17:13;;;;;;;;;13.50;12.75;;;;;;;;5052030;28;45756;-76
2022/01/29 06:19:38;;;;;;;;;15.00;13.50;;;;;;;;5057767;28;45559;-77
2022/01/29 06:22:09;;;;;;;;;15.75;14.00;;;;;;;;5037296;28;45294;-76
2022/01/29 06:24:34;;;;;;;;;13.75;11.50;;;;;;;;5058709;28;45262;-76
2022/01/29 06:26:59;;;;;;;;;13.50;12.00;;;;;;;;5056383;28;45395;-77
2022/01/29 06:29:24;;;;;;;;;14.00;10.75;;;;;;;;5058437;28;45298;-76
2022/01/29 06:31:50;;;;;;;;;16.50;13.00;;;;;;;;5056735;28;45339;-76
2022/01/29 06:34:15;;;;;;;;;7.00;6.75;;;;;;;;5054379;28;45419;-76
2022/01/29 06:36:40;;;;;;;;;13.50;13.50;;;;;;;;5048206;28;45479;-77
2022/01/29 06:39:05;;;;;;;;;11.00;11.00;;;;;;;;5058396;28;45344;-76
2022/01/29 06:41:31;;;;;;;;;9.50;9.50;;;;;;;;5050401;28;45443;-76
2022/01/29 06:43:56;;;;;;;;;11.50;11.50;;;;;;;;5058223;28;45308;-76
2022/01/29 06:46:21;;;;;;;;;11.75;11.75;;;;;;;;5056714;28;45587;-76
2022/01/29 06:48:47;;;;;;;;;11.00;10.00;;;;;;;;5040619;28;47092;-76
2022/01/29 06:51:13;;;;;;;;;13.25;11.00;;;;;;;;5037692;28;45380;-77
2022/01/29 06:53:38;;;;;;;;;14.00;11.00;;;;;;;;5058440;28;45339;-76
2022/01/29 06:56:04;;;;;;;;;13.00;11.50;;;;;;;;5047738;28;45183;-77
2022/01/29 06:58:30;;;;;;;;;9.00;9.00;;;;;;;;5057657;28;45576;-77
2022/01/29 07:00:55;;;;;;;;;14.25;10.00;;;;;;;;5055770;28;45203;-78
2022/01/29 07:03:20;;;;;;;;;10.50;10.50;;;;;;;;5040028;28;45336;-78
2022/01/29 07:05:46;;;;;;;;;14.25;11.00;;;;;;;;5055424;28;45163;-78
2022/01/29 07:08:11;;;;;;;;;8.25;7.75;;;;;;;;5037163;28;47373;-76
2022/01/29 07:10:37;;;;;;;;;9.00;9.00;;;;;;;;5055686;28;45279;-78
2022/01/29 07:13:03;;;;;;;;;11.00;7.00;;;;;;;;5055445;28;45490;-77
2022/01/29 07:15:28;;;;;;;;;10.25;9.75;;;;;;;;5056303;28;45542;-77
2022/01/29 07:17:53;;;;;;;;;10.00;9.00;;;;;;;;5058354;28;45745;-78
2022/01/29 07:20:18;;;;;;;;;15.75;11.25;;;;;;;;5059636;28;45329;-77
2022/01/29 07:22:43;;;;;;;;;9.75;9.75;;;;;;;;5052057;28;45369;-77
2022/01/29 07:25:09;;;;;;;;;10.25;8.00;;;;;;;;5061982;28;45229;-78
2022/01/29 07:27:34;;;;;;;;;9.00;9.00;;;;;;;;5052618;28;45423;-78
2022/01/29 07:29:59;;;;;;;;;10.25;8.00;;;;;;;;5043787;28;45285;-77
2022/01/29 07:32:24;;;;;;;;;12.25;8.00;;;;;;;;5038221;28;45242;-78
2022/01/29 07:34:50;;;;;;;;;10.00;7.75;;;;;;;;5043710;28;45977;-78
2022/01/29 07:37:15;;;;;;;;;9.00;9.00;;;;;;;;5058817;28;46371;-78
2022/01/29 07:39:40;;;;;;;;;10.25;8.00;;;;;;;;5043815;28;45292;-76
2022/01/29 07:42:05;;;;;;;;;8.25;6.25;;;;;;;;5052700;28;44780;-77
2022/01/29 07:44:31;;;;;;;;;8.25;7.00;;;;;;;;5049758;28;46666;-76
2022/01/29 07:46:56;;;;;;;;;7.25;7.25;;;;;;;;5036979;28;47243;-77
2022/01/29 07:49:21;;;;;;;;;10.50;7.00;;;;;;;;5060543;28;45328;-77
2022/01/29 07:51:47;;;;;;;;;9.00;7.50;;;;;;;;5055141;28;45453;-76
2022/01/29 07:54:12;;;;;;;;;8.00;7.00;;;;;;;;5043276;28;45586;-78
2022/01/29 07:56:37;;;;;;;;;7.00;7.00;;;;;;;;5054628;28;45650;-76
2022/01/29 07:59:05;;;;;;;;;9.50;8.25;;;;;;;;5061335;28;45188;-77
2022/01/29 08:01:31;;;;;;;;;5.00;5.00;;;;;;;;5055552;28;45594;-76
2022/01/29 08:03:56;;;;;;;;;5.50;3.75;;;;;;;;5057086;28;45300;-77
2022/01/29 08:06:22;;;;;;;;;13.75;9.00;;;;;;;;5056620;28;45470;-78
2022/01/29 08:08:48;;;;;;;;;7.25;7.25;;;;;;;;5049678;28;45362;-77
2022/01/29 08:11:13;;;;;;;;;4.25;4.25;;;;;;;;5058068;28;45271;-78
2022/01/29 08:13:38;;;;;;;;;5.50;4.00;;;;;;;;5059999;28;45406;-74
2022/01/29 08:16:04;;;;;;;;;7.50;7.00;;;;;;;;5057273;28;46793;-76
2022/01/29 08:18:29;;;;;;;;;6.50;5.00;;;;;;;;5050935;28;45258;-77
2022/01/29 08:20:55;;;;;;;;;5.00;5.00;;;;;;;;5059214;28;45375;-77
2022/01/29 08:23:20;;;;;;;;;9.00;6.25;;;;;;;;5053280;28;45529;-77
2022/01/29 08:25:45;;;;;;;;;5.00;3.75;;;;;;;;5046407;28;48078;-77
2022/01/29 08:28:10;;;;;;;;;3.00;3.00;;;;;;;;5056880;28;45340;-78
2022/01/29 08:30:36;;;;;;;;;9.50;5.00;;;;;;;;5058017;28;45385;-77
2022/01/29 08:33:01;;;;;;;;;4.25;4.00;;;;;;;;5054106;28;45487;-77
2022/01/29 08:35:26;;;;;;;;;4.50;4.00;;;;;;;;5058845;28;45381;-77
2022/01/29 08:37:53;;;;;;;;;5.00;4.00;;;;;;;;5060846;28;45198;-77
2022/01/29 08:40:18;;;;;;;;;6.00;4.00;;;;;;;;5060227;28;45222;-77
2022/01/29 08:42:44;;;;;;;;;5.00;5.00;;;;;;;;5055188;28;45151;-77
2022/01/29 08:45:09;;;;;;;;;4.75;4.75;;;;;;;;5047716;28;47376;-78
2022/01/29 08:47:34;;;;;;;;;5.25;5.00;;;;;;;;5036351;28;45980;-77
2022/01/29 08:50:03;;;;;;;;;5.00;5.00;;;;;;;;5060830;28;45316;-77
2022/01/29 08:52:28;;;;;;;;;4.00;4.00;;;;;;;;5052833;28;46831;-77
2022/01/29 08:54:54;;;;;;;;;5.25;5.25;;;;;;;;5060488;28;46487;-79
2022/01/29 08:57:20;;;;;;;;;7.25;4.25;;;;;;;;5054656;28;45367;-78
2022/01/29 08:59:45;;;;;;;;;3.75;3.75;;;;;;;;5042496;28;45293;-77
2022/01/29 09:02:10;;;;;;;;;8.00;4.00;;;;;;;;5031569;28;46176;-76
2022/01/29 09:04:35;;;;;;;;;6.00;4.00;;;;;;;;5056107;28;45336;-76
2022/01/29 09:07:01;;;;;;;;;8.00;2.50;;;;;;;;5052177;28;45389;-77
2022/01/29 09:09:26;;;;;;;;;4.75;4.75;;;;;;;;5042632;28;45326;-76
2022/01/29 09:11:52;;;;;;;;;5.00;4.50;;;;;;;;5044046;28;46313;-77
2022/01/29 09:14:18;;;;;;;;;5.75;4.50;;;;;;;;5052889;28;47262;-76
2022/01/29 09:16:43;;;;;;;;;2.50;2.50;;;;;;;;5053640;28;45418;-77
2022/01/29 09:19:09;;;;;;;;;6.00;4.50;;;;;;;;5055031;28;45216;-77
2022/01/29 09:21:34;;;;;;;;;5.25;4.25;;;;;;;;5053516;28;46305;-77
2022/01/29 09:23:59;;;;;;;;;6.00;5.25;;;;;;;;5050601;28;47857;-76
2022/01/29 09:26:24;;;;;;;;;4.25;3.00;;;;;;;;5057121;28;45492;-76
2022/01/29 09:28:50;;;;;;;;;5.50;3.50;;;;;;;;5054304;28;45437;-76
2022/01/29 09:31:15;;;;;;;;;7.50;4.25;;;;;;;;5035636;28;45868;-78
2022/01/29 09:33:40;;;;;;;;;4.25;4.25;;;;;;;;5053060;28;45357;-76
2022/01/29 09:36:06;;;;;;;;;6.25;4.00;;;;;;;;5035962;28;45239;-76
2022/01/29 09:38:31;;;;;;;;;4.00;4.00;;;;;;;;5059368;28;45191;-78
2022/01/29 09:40:57;;;;;;;;;4.75;4.00;;;;;;;;5054856;28;45337;-76
2022/01/29 09:43:25;;;;;;;;;5.00;5.00;;;;;;;;5058358;28;46740;-77
2022/01/29 09:45:51;;;;;;;;;7.50;5.00;;;;;;;;5042581;28;45582;-77
2022/01/29 09:48:30;;;;;;;;;4.75;4.50;;;;;;;;5044031;28;45805;-77
2022/01/29 09:50:56;;;;;;;;;5.75;4.25;;;;;;;;5054022;28;45804;-77
2022/01/29 09:53:21;;;;;;;;;4.00;4.00;;;;;;;;5058888;28;46629;-76
2022/01/29 09:55:47;;;;;;;;;4.25;4.00;;;;;;;;5038960;28;46208;-77
2022/01/29 09:58:12;;;;;;;;;5.00;5.00;;;;;;;;5051442;28;45332;-77
2022/01/29 10:00:38;;;;;;;;;3.00;3.00;;;;;;;;5057711;28;45307;-78
2022/01/29 10:03:10;;;;;;;;;5.50;5.50;;;;;;;;5053335;28;45415;-78
2022/01/29 10:05:36;;;;;;;;;5.75;4.50;;;;;;;;5057361;28;45458;-78
2022/01/29 10:08:01;;;;;;;;;4.25;4.00;;;;;;;;5043998;28;45422;-78
2022/01/29 10:10:26;;;;;;;;;4.00;4.00;;;;;;;;5057777;28;45391;-78
2022/01/29 10:12:52;;;;;;;;;4.00;4.00;;;;;;;;5039747;28;47105;-77
2022/01/29 10:15:21;;;;;;;;;7.50;4.00;;;;;;;;5057383;28;45363;-77
2022/01/29 10:17:47;;;;;;;;;3.50;3.50;;;;;;;;5048445;28;45441;-76
2022/01/29 10:20:16;;;;;;;;;5.00;4.00;;;;;;;;5050999;28;46518;-78
2022/01/29 10:22:43;;;;;;;;;5.00;4.00;;;;;;;;5048322;28;47235;-76
2022/01/29 10:25:13;;;;;;;;;5.25;4.00;;;;;;;;5059236;28;45326;-76
2022/01/29 10:27:39;;;;;;;;;4.50;4.00;;;;;;;;5050946;28;45324;-77
2022/01/29 10:30:04;;;;;;;;;9.00;5.25;;;;;;;;5025481;28;45532;-76
2022/01/29 10:32:30;;;;;;;;;4.00;4.00;;;;;;;;5056053;28;45430;-76
2022/01/29 10:34:56;;;;;;;;;4.00;3.00;;;;;;;;5058121;28;45284;-76
2022/01/29 10:37:23;;;;;;;;;3.00;3.00;;;;;;;;5056442;28;45400;-76
2022/01/29 10:39:48;;;;;;;;;5.00;3.00;;;;;;;;5056483;28;45249;-76
2022/01/29 10:42:22;;;;;;;;;4.00;3.50;;;;;;;;5062691;28;46771;-78
2022/01/29 10:44:48;;;;;;;;;3.00;3.00;;;;;;;;5056020;28;45339;-77
2022/01/29 10:47:14;;;;;;;;;4.00;3.00;;;;;;;;5052523;28;45250;-76
2022/01/29 10:49:48;;;;;;;;;2.00;2.00;;;;;;;;5058655;28;45757;-77
2022/01/29 10:52:14;;;;;;;;;4.25;4.25;;;;;;;;5052231;28;45266;-77
2022/01/29 10:54:41;;;;;;;;;3.00;3.00;;;;;;;;5062417;28;45350;-76
2022/01/29 10:57:08;;;;;;;;;7.50;4.00;;;;;;;;5055729;28;45278;-75
2022/01/29 10:59:35;;;;;;;;;4.00;4.00;;;;;;;;5062222;28;45321;-76
2022/01/29 11:02:05;;;;;;;;;8.25;4.75;;;;;;;;5056908;28;45577;-75
2022/01/29 11:04:32;;;;;;;;;4.00;4.00;;;;;;;;5058596;28;45356;-76
2022/01/29 11:07:01;;;;;;;;;4.50;3.00;;;;;;;;5036881;28;45391;-76
2022/01/29 11:09:27;;;;;;;;;3.00;3.00;;;;;;;;5062013;28;45409;-76
2022/01/29 11:11:54;;;;;;;;;3.00;3.00;;;;;;;;5037866;28;46967;-76
2022/01/29 11:14:19;;;;;;;;;1.25;1.25;;;;;;;;5057151;28;45296;-74
2022/01/29 11:16:46;;;;;;;;;2.00;2.00;;;;;;;;5038330;28;45533;-76
2022/01/29 11:19:11;;;;;;;;;3.00;2.50;;;;;;;;5056706;28;45392;-76
2022/01/29 11:21:37;;;;;;;;;3.75;2.00;;;;;;;;5059669;28;45423;-76
2022/01/29 11:24:04;;;;;;;;;1.75;1.75;;;;;;;;5062004;28;45206;-76
2022/01/29 11:26:30;;;;;;;;;2.00;2.00;;;;;;;;5055880;28;45348;-76
2022/01/29 11:29:21;;;;;;;;;2.00;2.00;;;;;;;;5061553;28;45337;-77
2022/01/29 11:31:46;;;;;;;;;4.00;3.00;;;;;;;;5023372;28;45584;-76
2022/01/29 11:34:11;;;;;;;;;4.00;2.50;;;;;;;;5060076;28;45348;-76
2022/01/29 11:36:49;;;;;;;;;3.00;2.00;;;;;;;;5042204;28;45213;-76
2022/01/29 11:39:21;;;;;;;;;3.67;1.00;;;;;;;;5048456;28;45259;-76
2022/01/29 11:42:06;;;;;;;;;3.67;1.00;;;;;;;;5033965;28;47128;-76
2022/01/29 11:44:31;;;;;;;;;2.00;2.00;;;;;;;;5061451;28;45313;-76
2022/01/29 11:46:56;;;;;;;;;3.00;1.33;;;;;;;;5054817;28;45478;-76
2022/01/29 11:49:22;;;;;;;;;1.00;1.00;;;;;;;;5049857;28;46155;-76
2022/01/29 11:51:50;;;;;;;;;2.33;1.00;;;;;;;;5041808;28;47413;-76
2022/01/29 11:54:23;;;;;;;;;1.00;1.00;;;;;;;;5061365;28;44715;-76
2022/01/29 11:57:03;;;;;;;;;1.00;1.00;;;;;;;;5036622;28;45323;-77
2022/01/29 11:59:28;;;;;;;;;2.00;2.00;;;;;;;;5042968;28;46285;-76
2022/01/29 12:01:58;;;;;;;;;2.33;2.33;;;;;;;;5050788;28;47306;-76
2022/01/29 12:04:42;;;;;;;;;2.00;2.00;;;;;;;;5053855;28;45409;-76
2022/01/29 12:07:14;;;;;;;;;1.00;1.00;;;;;;;;5035133;28;45194;-77
2022/01/29 12:09:51;;;;;;;;;3.00;2.00;;;;;;;;5042993;28;46135;-76
2022/01/29 12:12:17;;;;;;;;;3.67;2.00;;;;;;;;5058076;28;46081;-76
2022/01/29 12:14:43;;;;;;;;;2.00;2.00;;;;;;;;5061290;28;45432;-75
2022/01/29 12:17:08;;;;;;;;;3.00;2.00;;;;;;;;5064524;28;45211;-76
2022/01/29 12:19:33;;;;;;;;;2.25;2.25;;;;;;;;5059322;28;45615;-76
2022/01/29 12:21:59;;;;;;;;;1.00;1.00;;;;;;;;5053389;28;46660;-76
2022/01/29 12:24:24;;;;;;;;;1.00;1.00;;;;;;;;5059003;28;45353;-76
2022/01/29 12:26:53;;;;;;;;;2.33;1.00;;;;;;;;5055091;28;45549;-76
2022/01/29 12:29:20;;;;;;;;;2.00;2.00;;;;;;;;5060599;28;45305;-76
2022/01/29 12:31:50;;;;;;;;;2.00;1.00;;;;;;;;5054260;28;45596;-76
2022/01/29 12:34:16;;;;;;;;;2.00;2.00;;;;;;;;5060400;28;45230;-74
2022/01/29 12:36:41;;;;;;;;;1.00;1.00;;;;;;;;5058298;28;45408;-74
2022/01/29 12:39:09;;;;;;;;;2.00;2.00;;;;;;;;5060712;28;45431;-74
2022/01/29 12:41:38;;;;;;;;;2.00;2.00;;;;;;;;5036275;28;45691;-75
2022/01/29 12:44:08;;;;;;;;;2.00;2.00;;;;;;;;5060385;28;45237;-74
2022/01/29 12:46:34;;;;;;;;;3.00;1.75;;;;;;;;5054030;28;45278;-74
2022/01/29 12:49:07;;;;;;;;;1.00;1.00;;;;;;;;5060250;28;45314;-75
2022/01/29 12:51:36;;;;;;;;;2.00;2.00;;;;;;;;5053651;28;45496;-75
2022/01/29 12:54:03;;;;;;;;;3.00;1.67;;;;;;;;5060592;28;45280;-74
2022/01/29 12:56:30;;;;;;;;;2.33;2.33;;;;;;;;5054198;28;45287;-74
2022/01/29 12:58:56;;;;;;;;;3.00;2.00;;;;;;;;5055934;28;45434;-77
2022/01/29 13:01:23;;;;;;;;;2.00;1.00;;;;;;;;5054180;28;45571;-75
2022/01/29 13:03:49;;;;;;;;;2.00;1.00;;;;;;;;5041995;28;45380;-75
2022/01/29 13:06:15;;;;;;;;;3.75;3.75;;;;;;;;5056462;28;45642;-74
2022/01/29 13:08:41;;;;;;;;;4.25;3.50;;;;;;;;5058601;28;45347;-75
2022/01/29 13:11:26;;;;;;;;;2.67;2.67;;;;;;;;5057375;28;46334;-74
2022/01/29 13:13:51;;;;;;;;;3.33;2.00;;;;;;;;5030222;28;45379;-74
2022/01/29 13:16:17;;;;;;;;;2.00;2.00;;;;;;;;5055467;28;45424;-76
2022/01/29 13:18:43;;;;;;;;;4.00;4.00;;;;;;;;5051549;28;45568;-74
2022/01/29 13:21:08;;;;;;;;;2.00;2.00;;;;;;;;5057724;28;45210;-75
2022/01/29 13:23:34;;;;;;;;;1.00;1.00;;;;;;;;5052947;28;45226;-75
2022/01/29 13:26:12;;;;;;;;;3.50;3.50;;;;;;;;5040419;28;45263;-75
2022/01/29 13:28:45;;;;;;;;;2.00;2.00;;;;;;;;5049096;28;46022;-78
2022/01/29 13:31:10;;;;;;;;;2.33;2.00;;;;;;;;5054413;28;45719;-75
2022/01/29 13:33:36;;;;;;;;;3.00;3.00;;;;;;;;5058145;28;45285;-77
2022/01/29 13:36:01;;;;;;;;;2.00;2.00;;;;;;;;5057554;28;45296;-74
2022/01/29 13:38:28;;;;;;;;;2.00;2.00;;;;;;;;5055305;28;45924;-75
2022/01/29 13:40:57;;;;;;;;;4.00;3.00;;;;;;;;5056960;28;45402;-75
2022/01/29 13:43:28;;;;;;;;;1.67;1.67;;;;;;;;5056257;28;45233;-76
2022/01/29 13:45:54;;;;;;;;;3.75;3.00;;;;;;;;5057145;28;45554;-75
2022/01/29 13:48:20;;;;;;;;;1.00;1.00;;;;;;;;5055540;28;45504;-75
2022/01/29 13:50:54;;;;;;;;;5.00;3.00;;;;;;;;5055769;28;47232;-75
2022/01/29 13:53:20;;;;;;;;;3.00;2.00;;;;;;;;5052080;28;45457;-75
2022/01/29 13:56:05;;;;;;;;;2.00;2.00;;;;;;;;5057491;28;45380;-75
2022/01/29 13:58:49;;;;;;;;;2.00;2.00;;;;;;;;5055266;28;45554;-76
2022/01/29 14:01:15;;;;;;;;;2.00;2.00;;;;;;;;5055353;28;45395;-76
2022/01/29 14:03:45;;;;;;;;;3.00;3.00;;;;;;;;5057463;28;45379;-75
2022/01/29 14:06:27;;;;;;;;;3.75;3.75;;;;;;;;5056853;28;45458;-75
2022/01/29 14:09:08;;;;;;;;;1.33;1.33;;;;;;;;5049382;28;46978;-76
2022/01/29 14:11:52;;;;;;;;;2.00;1.67;;;;;;;;5056734;28;46398;-77
2022/01/29 14:14:17;;;;;;;;;3.67;2.00;;;;;;;;5037532;28;45812;-76
2022/01/29 14:16:42;;;;;;;;;1.00;1.00;;;;;;;;5054592;28;45434;-76
2022/01/29 14:19:16;;;;;;;;;2.67;2.00;;;;;;;;5053575;28;45541;-76
2022/01/29 14:21:41;;;;;;;;;2.00;1.00;;;;;;;;5031660;28;47495;-76
2022/01/29 14:24:07;;;;;;;;;3.00;1.00;;;;;;;;5055251;28;45268;-77
2022/01/29 14:26:35;;;;;;;;;2.00;0.00;;;;;;;;5051153;28;45383;-77
2022/01/29 14:29:00;;;;;;;;;1.00;1.00;;;;;;;;5054309;28;45434;-77
2022/01/29 14:31:25;;;;;;;;;1.00;1.00;;;;;;;;5052640;28;46255;-77
2022/01/29 14:33:51;;;;;;;;;4.33;3.00;;;;;;;;5059742;28;45372;-78
2022/01/29 14:36:16;;;;;;;;;5.00;2.00;;;;;;;;5038658;28;45374;-78
2022/01/29 14:38:41;;;;;;;;;2.75;2.00;;;;;;;;5055506;28;45335;-79
2022/01/29 14:41:06;;;;;;;;;3.00;2.00;;;;;;;;5054585;28;45665;-80